Time;durP1;ratioP1;P1;durP2;ratioP2;P2;SDS_P1;SDS_P2;PMS_P1;PMS_P2;Temp;Humidity;BMP_temperature;BMP_pressure;BME280_temperature;BME280_humidity;BME280_pressure;Samples;Min_cycle;Max_cycle;Signal;HPM_P1;HPM_P2
2021/10/19 00:02:38;0.00;0.00;0.62;0.00;0.00;0.62;3.73;2.87;;;25.10;28.80;;;;;;2245889;61;20758;-59
2021/10/19 00:05:23;0.00;0.00;0.62;0.00;0.00;0.62;3.23;2.73;;;25.10;28.80;;;;;;2241478;62;20369;-60
2021/10/19 00:08:07;0.00;0.00;0.62;0.00;0.00;0.62;4.07;2.70;;;25.10;28.80;;;;;;2241687;62;20386;-59
2021/10/19 00:10:52;0.00;0.00;0.62;0.00;0.00;0.62;3.03;2.70;;;25.10;28.80;;;;;;2241552;62;20722;-59
2021/10/19 00:13:41;0.00;0.00;0.62;0.00;0.00;0.62;2.20;2.00;;;25.10;28.80;;;;;;2241652;62;20367;-59
2021/10/19 00:16:26;0.00;0.00;0.62;0.00;0.00;0.62;2.43;2.20;;;25.10;28.70;;;;;;2241456;62;20611;-58
2021/10/19 00:19:11;0.00;0.00;0.62;0.00;0.00;0.62;2.80;2.50;;;25.00;28.70;;;;;;2241702;62;20386;-58
2021/10/19 00:21:55;0.00;0.00;0.62;0.00;0.00;0.62;3.00;2.33;;;25.00;28.70;;;;;;2242040;62;20365;-60
2021/10/19 00:24:42;0.00;0.00;0.62;0.00;0.00;0.62;2.73;2.43;;;25.00;28.70;;;;;;2241482;62;20366;-59
2021/10/19 00:27:26;0.00;0.00;0.62;0.00;0.00;0.62;2.60;2.40;;;25.00;28.70;;;;;;2241189;62;20354;-59
2021/10/19 00:30:16;0.00;0.00;0.62;0.00;0.00;0.62;2.77;2.47;;;25.00;28.70;;;;;;2241702;62;20391;-58
2021/10/19 00:33:01;0.00;0.00;0.62;0.00;0.00;0.62;3.00;2.57;;;25.00;28.70;;;;;;2238425;62;20366;-60
2021/10/19 00:35:46;0.00;0.00;0.62;0.00;0.00;0.62;2.73;2.50;;;25.00;28.70;;;;;;2238238;62;20434;-59
2021/10/19 00:38:30;0.00;0.00;0.62;0.00;0.00;0.62;2.90;2.50;;;25.00;28.70;;;;;;2244751;61;20433;-57
2021/10/19 00:41:15;0.00;0.00;0.62;0.00;0.00;0.62;3.07;2.33;;;25.00;28.70;;;;;;2245766;61;20388;-56
2021/10/19 00:43:59;0.00;0.00;0.62;0.00;0.00;0.62;10.70;3.30;;;25.00;28.70;;;;;;2245687;61;20453;-57
2021/10/19 00:46:46;0.00;0.00;0.62;0.00;0.00;0.62;4.67;3.40;;;25.00;28.70;;;;;;2245068;61;20710;-57
2021/10/19 00:49:33;0.00;0.00;0.62;0.00;0.00;0.62;4.93;4.43;;;25.00;28.70;;;;;;2245445;61;20388;-54
2021/10/19 00:52:19;0.00;0.00;0.62;0.00;0.00;0.62;4.83;4.27;;;25.00;28.70;;;;;;2245921;61;20365;-57
2021/10/19 00:55:04;0.00;0.00;0.62;0.00;0.00;0.62;5.90;4.43;;;25.00;28.60;;;;;;2245415;61;20395;-57
2021/10/19 00:57:50;0.00;0.00;0.62;0.00;0.00;0.62;5.80;5.10;;;25.00;28.60;;;;;;2245302;61;20381;-57
2021/10/19 01:00:35;0.00;0.00;0.62;0.00;0.00;0.62;6.23;5.63;;;25.00;28.60;;;;;;2245717;61;20426;-55
2021/10/19 01:03:21;0.00;0.00;0.62;0.00;0.00;0.62;5.40;4.57;;;24.90;28.50;;;;;;2245773;61;20401;-57
2021/10/19 01:06:07;0.00;0.00;0.62;0.00;0.00;0.62;5.30;4.70;;;24.90;28.50;;;;;;2245583;61;20384;-57
2021/10/19 01:08:51;0.00;0.00;0.62;0.00;0.00;0.62;5.83;5.33;;;24.90;28.50;;;;;;2245183;61;20597;-56
2021/10/19 01:11:37;0.00;0.00;0.62;0.00;0.00;0.62;5.70;5.20;;;24.90;28.50;;;;;;2245391;61;20717;-55
2021/10/19 01:14:22;0.00;0.00;0.62;0.00;0.00;0.62;6.03;5.43;;;24.80;28.40;;;;;;2245688;61;20442;-56
2021/10/19 01:17:08;0.00;0.00;0.62;0.00;0.00;0.62;6.40;5.80;;;24.80;28.40;;;;;;2245246;61;20709;-56
2021/10/19 01:19:54;0.00;0.00;0.62;0.00;0.00;0.62;5.90;5.40;;;24.80;28.40;;;;;;2244937;61;20389;-56
2021/10/19 01:22:38;0.00;0.00;0.62;0.00;0.00;0.62;6.30;5.70;;;24.70;28.40;;;;;;2245589;61;20725;-57
2021/10/19 01:25:26;0.00;0.00;0.62;0.00;0.00;0.62;6.20;5.60;;;24.70;28.40;;;;;;2245525;61;20362;-57
2021/10/19 01:28:12;0.00;0.00;0.62;0.00;0.00;0.62;5.67;4.83;;;24.70;28.40;;;;;;2245094;61;20453;-55
2021/10/19 01:31:00;0.00;0.00;0.62;0.00;0.00;0.62;5.63;5.03;;;24.70;28.50;;;;;;2245185;61;20390;-56
2021/10/19 01:33:44;0.00;0.00;0.62;0.00;0.00;0.62;6.07;5.43;;;24.70;28.50;;;;;;2245292;61;20413;-54
2021/10/19 01:36:30;0.00;0.00;0.62;0.00;0.00;0.62;6.00;5.33;;;24.70;28.50;;;;;;2245317;61;20386;-57
2021/10/19 01:39:15;0.00;0.00;0.62;0.00;0.00;0.62;5.80;5.30;;;24.60;28.50;;;;;;2361758;53;20401;-55
2021/10/19 01:41:59;0.00;0.00;0.62;0.00;0.00;0.62;5.50;5.00;;;24.70;28.50;;;;;;2245378;61;20388;-56
2021/10/19 01:44:44;0.00;0.00;0.62;0.00;0.00;0.62;5.10;4.63;;;24.60;28.50;;;;;;2245469;61;20626;-56
2021/10/19 01:47:29;0.00;0.00;0.62;0.00;0.00;0.62;5.90;5.30;;;24.60;28.50;;;;;;2245191;61;20398;-58
2021/10/19 01:50:16;0.00;0.00;0.62;0.00;0.00;0.62;6.37;5.77;;;24.60;28.50;;;;;;2245556;61;20737;-56
2021/10/19 01:53:04;0.00;0.00;0.62;0.00;0.00;0.62;6.50;5.90;;;24.60;28.50;;;;;;2245125;61;20400;-57
2021/10/19 01:55:49;0.00;0.00;0.62;0.00;0.00;0.62;6.00;5.40;;;24.60;28.50;;;;;;2245116;61;20421;-56
2021/10/19 01:58:34;0.00;0.00;0.62;0.00;0.00;0.62;6.40;5.80;;;24.60;28.50;;;;;;2245417;61;20424;-56
2021/10/19 02:01:19;0.00;0.00;0.62;0.00;0.00;0.62;5.70;5.10;;;24.60;29.00;;;;;;2245983;61;20402;-56
2021/10/19 02:04:04;0.00;0.00;0.62;0.00;0.00;0.62;6.60;5.90;;;24.50;28.50;;;;;;2246004;61;20358;-58
2021/10/19 02:06:48;0.00;0.00;0.62;0.00;0.00;0.62;6.03;5.50;;;24.50;28.50;;;;;;2246014;61;20401;-57
2021/10/19 02:09:34;0.00;0.00;0.62;0.00;0.00;0.62;6.47;5.63;;;24.50;28.50;;;;;;2242804;61;20381;-56
2021/10/19 02:12:19;0.00;0.00;0.62;0.00;0.00;0.62;6.67;5.80;;;24.50;28.50;;;;;;2246126;61;20440;-55
2021/10/19 02:15:05;0.00;0.00;0.62;0.00;0.00;0.62;6.17;5.67;;;24.50;28.50;;;;;;2245669;61;20409;-56
2021/10/19 02:17:50;0.00;0.00;0.62;0.00;0.00;0.62;6.60;6.00;;;24.50;28.50;;;;;;2245719;61;20389;-57
2021/10/19 02:20:36;0.00;0.00;0.62;0.00;0.00;0.62;6.03;5.23;;;24.40;28.50;;;;;;2246315;61;20400;-57
2021/10/19 02:23:20;0.00;0.00;0.62;0.00;0.00;0.62;7.13;6.10;;;24.50;28.50;;;;;;2245966;61;20493;-57
2021/10/19 02:26:06;0.00;0.00;0.62;0.00;0.00;0.62;7.67;6.20;;;24.50;28.50;;;;;;2245812;61;20513;-59
2021/10/19 02:28:51;0.00;0.00;0.62;0.00;0.00;0.62;6.43;5.83;;;24.40;28.50;;;;;;2246098;61;20773;-54
2021/10/19 02:31:36;0.00;0.00;0.62;0.00;0.00;0.62;6.20;5.60;;;24.40;28.50;;;;;;2246007;61;20728;-58
2021/10/19 02:34:22;0.00;0.00;0.62;0.00;0.00;0.62;6.80;6.20;;;24.40;28.50;;;;;;2245836;61;20369;-57
2021/10/19 02:37:06;0.00;0.00;0.62;0.00;0.00;0.62;6.57;5.97;;;24.40;28.50;;;;;;2242266;61;20389;-57
2021/10/19 02:39:51;0.00;0.00;0.62;0.00;0.00;0.62;7.27;6.40;;;24.30;28.50;;;;;;2246161;61;20608;-56
2021/10/19 02:42:38;0.00;0.00;0.62;0.00;0.00;0.62;6.40;5.77;;;24.30;28.50;;;;;;2246389;61;20354;-56
2021/10/19 02:45:22;0.00;0.00;0.62;0.00;0.00;0.62;6.27;5.67;;;24.30;28.50;;;;;;2245925;61;20373;-58
2021/10/19 02:48:07;0.00;0.00;0.62;0.00;0.00;0.62;6.47;5.77;;;24.30;28.50;;;;;;2245600;61;20389;-57
2021/10/19 02:50:51;0.00;0.00;0.62;0.00;0.00;0.62;6.53;5.83;;;24.30;28.50;;;;;;2246221;61;20369;-53
2021/10/19 02:53:36;0.00;0.00;0.62;0.00;0.00;0.62;6.60;6.00;;;24.30;28.60;;;;;;2245940;61;20475;-57
2021/10/19 02:56:21;0.00;0.00;0.62;0.00;0.00;0.62;6.27;5.67;;;24.30;28.60;;;;;;2245597;61;20421;-56
2021/10/19 02:59:07;0.00;0.00;0.62;0.00;0.00;0.62;8.40;6.23;;;24.20;28.50;;;;;;2246016;61;20397;-56
2021/10/19 03:01:51;0.00;0.00;0.62;0.00;0.00;0.62;6.63;5.93;;;24.20;28.60;;;;;;2246039;61;20373;-56
2021/10/19 03:04:36;0.00;0.00;0.62;0.00;0.00;0.62;6.60;5.90;;;24.20;28.60;;;;;;2246068;61;20610;-56
2021/10/19 03:07:20;0.00;0.00;0.62;0.00;0.00;0.62;6.70;6.10;;;24.20;28.60;;;;;;2245509;61;20377;-57
2021/10/19 03:10:06;0.00;0.00;0.62;0.00;0.00;0.62;7.33;6.63;;;24.20;28.60;;;;;;2245412;61;20462;-57
2021/10/19 03:12:51;0.00;0.00;0.62;0.00;0.00;0.62;6.57;5.97;;;24.20;28.60;;;;;;2246115;61;20364;-58
2021/10/19 03:15:38;0.00;0.00;0.62;0.00;0.00;0.62;7.93;7.17;;;24.20;28.60;;;;;;2245704;61;20400;-58
2021/10/19 03:18:23;0.00;0.00;0.62;0.00;0.00;0.62;8.40;7.50;;;24.10;28.60;;;;;;2245465;61;20389;-58
2021/10/19 03:21:08;0.00;0.00;0.62;0.00;0.00;0.62;6.97;6.30;;;24.10;28.70;;;;;;2246056;61;20457;-58
2021/10/19 03:23:52;0.00;0.00;0.62;0.00;0.00;0.62;7.90;7.20;;;24.10;28.70;;;;;;2245760;61;20405;-56
2021/10/19 03:26:37;0.00;0.00;0.62;0.00;0.00;0.62;7.53;6.83;;;24.10;28.70;;;;;;2245663;61;20394;-58
2021/10/19 03:29:22;0.00;0.00;0.62;0.00;0.00;0.62;6.80;6.10;;;24.00;29.20;;;;;;2245539;61;20386;-55
2021/10/19 03:32:07;0.00;0.00;0.62;0.00;0.00;0.62;6.97;6.37;;;24.00;28.60;;;;;;2245557;61;20597;-59
2021/10/19 03:34:52;0.00;0.00;0.62;0.00;0.00;0.62;7.87;6.60;;;24.00;28.70;;;;;;2245877;61;20370;-55
2021/10/19 03:37:37;0.00;0.00;0.62;0.00;0.00;0.62;6.73;6.10;;;24.00;28.70;;;;;;2245422;61;20400;-56
2021/10/19 03:40:22;0.00;0.00;0.62;0.00;0.00;0.62;7.10;6.27;;;24.00;28.70;;;;;;2245504;61;20461;-58
2021/10/19 03:43:07;0.00;0.00;0.62;0.00;0.00;0.62;6.23;5.60;;;24.00;28.80;;;;;;2245983;61;20364;-57
2021/10/19 03:45:51;0.00;0.00;0.62;0.00;0.00;0.62;5.87;5.30;;;24.00;28.70;;;;;;2245589;61;20361;-56
2021/10/19 03:48:37;0.00;0.00;0.62;0.00;0.00;0.62;6.17;5.57;;;24.00;28.70;;;;;;2245817;61;20549;-58
2021/10/19 03:51:22;0.00;0.00;0.62;0.00;0.00;0.62;5.63;5.10;;;24.00;28.70;;;;;;2245406;61;20369;-57
2021/10/19 03:54:07;0.00;0.00;0.62;0.00;0.00;0.62;6.87;5.90;;;24.00;28.70;;;;;;2245526;61;20398;-57
2021/10/19 03:56:51;0.00;0.00;0.62;0.00;0.00;0.62;7.27;6.67;;;24.00;28.80;;;;;;2246003;61;20397;-57
2021/10/19 03:59:36;0.00;0.00;0.62;0.00;0.00;0.62;6.47;5.87;;;24.00;28.70;;;;;;2245437;61;20377;-58
2021/10/19 04:02:20;0.00;0.00;0.62;0.00;0.00;0.62;6.87;6.20;;;23.90;28.70;;;;;;2245628;61;20361;-58
2021/10/19 04:05:07;0.00;0.00;0.62;0.00;0.00;0.62;7.83;6.87;;;23.90;28.70;;;;;;2245938;61;20358;-57
2021/10/19 04:07:52;0.00;0.00;0.62;0.00;0.00;0.62;6.07;5.47;;;23.90;28.70;;;;;;2245389;61;20389;-58
2021/10/19 04:10:36;0.00;0.00;0.62;0.00;0.00;0.62;7.40;6.60;;;23.90;28.70;;;;;;2245490;61;20374;-58
2021/10/19 04:13:21;0.00;0.00;0.62;0.00;0.00;0.62;7.47;6.77;;;23.90;28.80;;;;;;2245172;61;20368;-58
2021/10/19 04:16:05;0.00;0.00;0.62;0.00;0.00;0.62;7.10;6.40;;;23.90;28.70;;;;;;2245756;61;20433;-57
2021/10/19 04:18:50;0.00;0.00;0.62;0.00;0.00;0.62;6.63;6.03;;;23.90;28.70;;;;;;2245911;61;20386;-58
2021/10/19 04:21:36;0.00;0.00;0.62;0.00;0.00;0.62;8.40;7.53;;;23.90;28.70;;;;;;2245296;61;20390;-56
2021/10/19 04:24:20;0.00;0.00;0.62;0.00;0.00;0.62;9.20;7.47;;;23.90;28.70;;;;;;2245554;61;20445;-56
2021/10/19 04:27:05;0.00;0.00;0.62;0.00;0.00;0.62;8.30;7.40;;;23.90;28.70;;;;;;2245489;61;20373;-59
2021/10/19 04:29:50;0.00;0.00;0.62;0.00;0.00;0.62;9.43;7.87;;;23.90;28.70;;;;;;2242361;61;20397;-57
2021/10/19 04:32:34;0.00;0.00;0.62;0.00;0.00;0.62;7.63;6.90;;;23.80;28.70;;;;;;2245638;61;20349;-57
2021/10/19 04:35:18;0.00;0.00;0.62;0.00;0.00;0.62;9.40;7.33;;;23.80;28.70;;;;;;2245492;61;20410;-58
2021/10/19 04:38:04;0.00;0.00;0.62;0.00;0.00;0.62;11.07;7.37;;;23.80;28.80;;;;;;2245676;61;20396;-57
2021/10/19 04:40:49;0.00;0.00;0.62;0.00;0.00;0.62;7.83;7.03;;;23.80;28.80;;;;;;2245840;61;20425;-58
2021/10/19 04:43:34;0.00;0.00;0.62;0.00;0.00;0.62;8.63;7.73;;;23.70;28.80;;;;;;2245195;61;20577;-57
2021/10/19 04:46:19;0.00;0.00;0.62;0.00;0.00;0.62;7.40;6.80;;;23.70;28.80;;;;;;2245587;61;20361;-56
2021/10/19 04:49:03;0.00;0.00;0.62;0.00;0.00;0.62;7.43;6.63;;;23.70;28.80;;;;;;2245564;61;20648;-58
2021/10/19 04:51:48;0.00;0.00;0.62;0.00;0.00;0.62;8.37;6.40;;;23.70;28.90;;;;;;2245442;61;20555;-55
2021/10/19 04:54:35;0.00;0.00;0.62;0.00;0.00;0.62;7.20;6.43;;;23.70;28.90;;;;;;2245445;61;20395;-57
2021/10/19 04:57:19;0.00;0.00;0.62;0.00;0.00;0.62;11.77;6.60;;;23.70;28.90;;;;;;2245500;61;20396;-59
2021/10/19 05:00:06;0.00;0.00;0.62;0.00;0.00;0.62;8.80;7.90;;;23.60;28.90;;;;;;2245775;61;20368;-55
2021/10/19 05:02:51;0.00;0.00;0.62;0.00;0.00;0.62;9.63;7.80;;;23.60;29.00;;;;;;2245482;61;20749;-54
2021/10/19 05:05:36;0.00;0.00;0.62;0.00;0.00;0.62;7.40;6.60;;;23.60;28.90;;;;;;2245284;61;20572;-57
2021/10/19 05:08:20;0.00;0.00;0.62;0.00;0.00;0.62;7.37;6.47;;;23.60;28.90;;;;;;2245315;61;20389;-56
2021/10/19 05:11:07;0.00;0.00;0.62;0.00;0.00;0.62;7.70;6.90;;;23.60;29.00;;;;;;2245572;61;20420;-59
2021/10/19 05:13:51;0.00;0.00;0.62;0.00;0.00;0.62;7.43;6.50;;;23.60;29.00;;;;;;2245519;61;20660;-57
2021/10/19 05:16:36;0.00;0.00;0.62;0.00;0.00;0.62;7.67;6.97;;;23.60;29.10;;;;;;2245120;61;20393;-58
2021/10/19 05:19:20;0.00;0.00;0.62;0.00;0.00;0.62;6.30;5.70;;;23.60;29.00;;;;;;2245516;61;20413;-59
2021/10/19 05:22:05;0.00;0.00;0.62;0.00;0.00;0.62;7.20;6.50;;;23.60;29.10;;;;;;2245473;61;20773;-56
2021/10/19 05:24:49;0.00;0.00;0.62;0.00;0.00;0.62;6.63;6.03;;;23.60;29.10;;;;;;2245425;61;20733;-58
2021/10/19 05:27:35;0.00;0.00;0.62;0.00;0.00;0.62;6.60;5.90;;;23.60;29.60;;;;;;2244925;61;20393;-56
2021/10/19 05:30:20;0.00;0.00;0.62;0.00;0.00;0.62;7.30;6.60;;;23.60;29.10;;;;;;2245327;61;20374;-57
2021/10/19 05:33:05;0.00;0.00;0.62;0.00;0.00;0.62;6.60;6.00;;;23.60;29.60;;;;;;2245524;61;20370;-56
2021/10/19 05:35:51;0.00;0.00;0.62;0.00;0.00;0.62;8.33;7.03;;;23.60;29.70;;;;;;2245250;61;20369;-56
2021/10/19 05:38:35;0.00;0.00;0.62;0.00;0.00;0.62;6.10;5.50;;;23.60;29.10;;;;;;2244968;61;20465;-57
2021/10/19 05:41:20;0.00;0.00;0.62;0.00;0.00;0.62;6.43;5.83;;;23.60;29.10;;;;;;2245691;61;20433;-57
2021/10/19 05:44:07;0.00;0.00;0.62;0.00;0.00;0.62;8.07;7.07;;;23.60;29.10;;;;;;2245362;61;20410;-57
2021/10/19 05:46:51;0.00;0.00;0.62;0.00;0.00;0.62;8.10;6.93;;;23.60;29.10;;;;;;2245216;61;20793;-56
2021/10/19 05:49:36;0.00;0.00;0.62;0.00;0.00;0.62;7.50;6.80;;;23.60;29.10;;;;;;2245139;61;20433;-56
2021/10/19 05:52:21;0.00;0.00;0.62;0.00;0.00;0.62;8.60;7.40;;;23.50;29.00;;;;;;2245368;61;20362;-57
2021/10/19 05:55:06;0.00;0.00;0.62;0.00;0.00;0.62;7.90;7.17;;;23.50;29.10;;;;;;2245779;61;20611;-57
2021/10/19 05:57:51;0.00;0.00;0.62;0.00;0.00;0.62;7.07;6.37;;;23.50;29.00;;;;;;2245126;61;20405;-56
2021/10/19 06:00:37;0.00;0.00;0.62;0.00;0.00;0.62;8.40;7.23;;;23.50;29.10;;;;;;2245081;61;20584;-57
2021/10/19 06:03:21;0.00;0.00;0.62;0.00;0.00;0.62;6.73;5.97;;;23.50;29.00;;;;;;2245628;61;20369;-58
2021/10/19 06:06:08;0.00;0.00;0.62;0.00;0.00;0.62;9.07;6.40;;;23.50;29.00;;;;;;2245236;61;20722;-57
2021/10/19 06:08:52;0.00;0.00;0.62;0.00;0.00;0.62;6.50;5.90;;;23.50;29.00;;;;;;2245283;61;20454;-58
2021/10/19 06:11:37;0.00;0.00;0.62;0.00;0.00;0.62;6.70;6.10;;;23.50;29.10;;;;;;2245445;61;20370;-59
2021/10/19 06:14:23;0.00;0.00;0.62;0.00;0.00;0.62;7.03;6.33;;;23.50;29.00;;;;;;2245338;61;20475;-57
2021/10/19 06:17:10;0.00;0.00;0.62;0.00;0.00;0.62;8.20;7.40;;;23.50;29.00;;;;;;2245617;61;20466;-57
2021/10/19 06:19:55;0.00;0.00;0.62;0.00;0.00;0.62;9.43;6.73;;;23.50;29.00;;;;;;2245231;61;20454;-58
2021/10/19 06:22:39;0.00;0.00;0.62;0.00;0.00;0.62;8.83;7.77;;;23.40;29.00;;;;;;2245103;61;20397;-59
2021/10/19 06:25:24;0.00;0.00;0.62;0.00;0.00;0.62;12.57;9.47;;;23.40;29.00;;;;;;2245542;61;20365;-56
2021/10/19 06:28:08;0.00;0.00;0.62;0.00;0.00;0.62;12.20;10.20;;;23.40;29.00;;;;;;2244940;61;20625;-58
2021/10/19 06:30:53;0.00;0.00;0.62;0.00;0.00;0.62;11.10;8.70;;;23.40;29.00;;;;;;2245315;61;20365;-58
2021/10/19 06:33:39;0.00;0.00;0.62;0.00;0.00;0.62;10.53;9.40;;;23.30;28.90;;;;;;2245487;61;20437;-56
2021/10/19 06:36:25;0.00;0.00;0.62;0.00;0.00;0.62;10.30;8.00;;;23.20;28.80;;;;;;2245077;61;20397;-59
2021/10/19 06:39:10;0.00;0.00;0.62;0.00;0.00;0.62;9.53;7.77;;;23.20;28.80;;;;;;2245362;61;20397;-58
2021/10/19 06:41:54;0.00;0.00;0.62;0.00;0.00;0.62;9.63;8.20;;;23.20;28.80;;;;;;2245009;61;20374;-59
2021/10/19 06:44:39;0.00;0.00;0.62;0.00;0.00;0.62;10.13;7.93;;;23.10;28.90;;;;;;2245052;61;20416;-61
2021/10/19 06:47:23;0.00;0.00;0.62;0.00;0.00;0.62;9.93;7.10;;;23.10;29.10;;;;;;2245933;61;20366;-59
2021/10/19 06:50:10;0.00;0.00;0.62;0.00;0.00;0.62;6.63;5.93;;;23.10;29.10;;;;;;2245736;61;20393;-60
2021/10/19 06:52:55;0.00;0.00;0.62;0.00;0.00;0.62;9.20;8.07;;;23.10;29.20;;;;;;2245802;61;20365;-60
2021/10/19 06:55:40;0.00;0.00;0.62;0.00;0.00;0.62;11.10;7.30;;;23.10;29.30;;;;;;2245953;61;20377;-60
2021/10/19 06:58:25;0.00;0.00;0.62;0.00;0.00;0.62;9.10;7.43;;;23.10;29.30;;;;;;2245650;61;20667;-57
2021/10/19 07:01:10;0.00;0.00;0.62;0.00;0.00;0.62;7.77;6.90;;;23.10;29.30;;;;;;2245985;61;20390;-58
2021/10/19 07:03:55;0.00;0.00;0.62;0.00;0.00;0.62;8.77;7.50;;;23.10;29.40;;;;;;2242336;61;20696;-58
2021/10/19 07:06:40;0.00;0.00;0.62;0.00;0.00;0.62;8.10;7.27;;;23.10;29.40;;;;;;2245725;61;20397;-58
2021/10/19 07:09:25;0.00;0.00;0.62;0.00;0.00;0.62;8.50;7.00;;;23.10;29.40;;;;;;2245630;61;20749;-59
2021/10/19 07:12:10;0.00;0.00;0.62;0.00;0.00;0.62;8.77;7.60;;;23.10;29.40;;;;;;2245743;61;20393;-59
2021/10/19 07:14:54;0.00;0.00;0.62;0.00;0.00;0.62;9.07;7.10;;;23.10;29.40;;;;;;2245687;61;20615;-58
2021/10/19 07:17:39;0.00;0.00;0.62;0.00;0.00;0.62;8.87;7.40;;;23.10;29.50;;;;;;2245952;61;20429;-59
2021/10/19 07:20:23;0.00;0.00;0.62;0.00;0.00;0.62;7.80;6.73;;;23.10;29.50;;;;;;2245845;61;20619;-54
2021/10/19 07:23:09;0.00;0.00;0.62;0.00;0.00;0.62;9.63;8.10;;;23.10;29.50;;;;;;2242884;61;20393;-56
2021/10/19 07:25:54;0.00;0.00;0.62;0.00;0.00;0.62;8.60;7.20;;;23.10;29.50;;;;;;2245343;61;20838;-58
2021/10/19 07:28:38;0.00;0.00;0.62;0.00;0.00;0.62;8.30;6.57;;;23.10;29.50;;;;;;2245657;61;20373;-59
2021/10/19 07:31:23;0.00;0.00;0.62;0.00;0.00;0.62;7.70;6.90;;;23.10;29.50;;;;;;2246274;61;20366;-59
2021/10/19 07:34:09;0.00;0.00;0.62;0.00;0.00;0.62;7.83;6.73;;;23.10;29.60;;;;;;2245662;61;20425;-57
2021/10/19 07:36:53;0.00;0.00;0.62;0.00;0.00;0.62;7.63;6.50;;;23.10;29.60;;;;;;2245453;61;20393;-56
2021/10/19 07:39:39;0.00;0.00;0.62;0.00;0.00;0.62;9.27;8.00;;;23.10;29.60;;;;;;2245633;61;20393;-58
2021/10/19 07:42:24;0.00;0.00;0.62;0.00;0.00;0.62;8.53;6.60;;;23.10;29.60;;;;;;2245844;61;20373;-58
2021/10/19 07:45:11;0.00;0.00;0.62;0.00;0.00;0.62;7.47;6.30;;;23.10;29.60;;;;;;2245699;61;20362;-55
2021/10/19 07:48:01;0.00;0.00;0.62;0.00;0.00;0.62;7.67;6.57;;;23.10;29.60;;;;;;2245160;61;20382;-54
2021/10/19 07:50:49;0.00;0.00;0.62;0.00;0.00;0.62;7.20;6.43;;;23.10;29.60;;;;;;2245914;61;20365;-58
2021/10/19 07:53:34;0.00;0.00;0.62;0.00;0.00;0.62;6.97;6.27;;;23.10;29.60;;;;;;2242886;61;20386;-58
2021/10/19 07:56:22;0.00;0.00;0.62;0.00;0.00;0.62;7.83;5.80;;;23.10;29.60;;;;;;2242334;61;20384;-53
2021/10/19 07:59:07;0.00;0.00;0.62;0.00;0.00;0.62;6.60;5.90;;;23.20;29.60;;;;;;2245497;61;20777;-55
2021/10/19 08:01:52;0.00;0.00;0.62;0.00;0.00;0.62;6.90;6.20;;;23.10;29.60;;;;;;2245784;61;20358;-56
2021/10/19 08:04:37;0.00;0.00;0.62;0.00;0.00;0.62;6.27;5.60;;;23.20;29.60;;;;;;2245793;61;20365;-58
2021/10/19 08:07:22;0.00;0.00;0.62;0.00;0.00;0.62;7.30;6.50;;;23.20;29.60;;;;;;2245466;61;20357;-54
2021/10/19 08:10:08;0.00;0.00;0.62;0.00;0.00;0.62;8.30;6.37;;;23.20;29.60;;;;;;2245364;61;20369;-59
2021/10/19 08:12:54;0.00;0.00;0.62;0.00;0.00;0.62;8.07;6.20;;;23.20;29.70;;;;;;2245913;61;20746;-59
2021/10/19 08:15:39;0.00;0.00;0.62;0.00;0.00;0.62;6.53;5.90;;;23.20;29.70;;;;;;2245751;61;20369;-56
2021/10/19 08:18:24;0.00;0.00;0.62;0.00;0.00;0.62;7.80;5.80;;;23.20;29.70;;;;;;2245468;61;20636;-55
2021/10/19 08:21:09;0.00;0.00;0.62;0.00;0.00;0.62;10.47;5.07;;;23.20;29.70;;;;;;2245501;61;20362;-56
2021/10/19 08:23:54;0.00;0.00;0.62;0.00;0.00;0.62;6.13;5.57;;;23.30;29.80;;;;;;2245762;61;20627;-59
2021/10/19 08:26:39;0.00;0.00;0.62;0.00;0.00;0.62;13.37;6.00;;;23.30;29.80;;;;;;2245347;61;20409;-57
2021/10/19 08:29:25;0.00;0.00;0.62;0.00;0.00;0.62;7.53;5.47;;;23.30;29.80;;;;;;2245378;61;20753;-58
2021/10/19 08:32:09;0.00;0.00;0.62;0.00;0.00;0.62;5.40;4.90;;;23.30;29.70;;;;;;2246051;61;20373;-56
2021/10/19 08:34:54;0.00;0.00;0.62;0.00;0.00;0.62;7.63;5.03;;;23.30;29.70;;;;;;2245700;61;20371;-56
2021/10/19 08:37:40;0.00;0.00;0.62;0.00;0.00;0.62;5.70;5.10;;;23.30;29.70;;;;;;2242404;61;20445;-61
2021/10/19 08:40:25;0.00;0.00;0.62;0.00;0.00;0.62;8.27;5.20;;;23.40;30.20;;;;;;2241886;61;20373;-59
2021/10/19 08:43:10;0.00;0.00;0.62;0.00;0.00;0.62;6.23;4.77;;;23.40;29.70;;;;;;2245296;61;20591;-64
2021/10/19 08:45:56;0.00;0.00;0.62;0.00;0.00;0.62;6.67;4.57;;;23.40;29.70;;;;;;2242984;61;20392;-60
2021/10/19 08:48:42;0.00;0.00;0.62;0.00;0.00;0.62;6.67;4.67;;;23.40;29.80;;;;;;2244954;61;20490;-59
2021/10/19 08:51:26;0.00;0.00;0.62;0.00;0.00;0.62;5.37;3.83;;;23.40;29.80;;;;;;2244865;61;20362;-58
2021/10/19 08:54:11;0.00;0.00;0.62;0.00;0.00;0.62;5.90;4.50;;;23.50;29.80;;;;;;2245505;61;20413;-60
2021/10/19 08:56:55;0.00;0.00;0.62;0.00;0.00;0.62;4.70;4.30;;;23.50;29.80;;;;;;2245444;61;20486;-61
2021/10/19 08:59:46;0.00;0.00;0.62;0.00;0.00;0.62;4.40;4.00;;;23.50;29.80;;;;;;2245580;61;20389;-61
2021/10/19 09:02:38;0.00;0.00;0.62;0.00;0.00;0.62;5.20;4.40;;;23.50;29.80;;;;;;2245358;61;20362;-60
2021/10/19 09:05:25;0.00;0.00;0.62;0.00;0.00;0.62;11.10;4.10;;;23.60;29.80;;;;;;2245254;61;20838;-62
2021/10/19 09:08:12;0.00;0.00;0.62;0.00;0.00;0.62;6.67;4.00;;;23.60;29.80;;;;;;2245375;61;20417;-61
2021/10/19 09:10:56;0.00;0.00;0.62;0.00;0.00;0.62;7.60;4.50;;;23.60;29.80;;;;;;2245422;61;20369;-62
2021/10/19 09:13:52;0.00;0.00;0.62;0.00;0.00;0.62;8.33;4.27;;;23.60;29.80;;;;;;2245212;61;20393;-59
2021/10/19 09:16:38;0.00;0.00;0.62;0.00;0.00;0.62;5.37;3.73;;;23.70;29.90;;;;;;2245293;61;20373;-59
2021/10/19 09:19:25;0.00;0.00;0.62;0.00;0.00;0.62;5.33;3.43;;;23.60;29.80;;;;;;2245464;61;20385;-61
2021/10/19 09:22:11;0.00;0.00;0.62;0.00;0.00;0.62;6.73;4.20;;;23.70;29.80;;;;;;2246126;61;20373;-61
2021/10/19 09:24:56;0.00;0.00;0.62;0.00;0.00;0.62;7.73;3.87;;;23.70;29.80;;;;;;2245327;61;20449;-59
2021/10/19 09:27:42;0.00;0.00;0.62;0.00;0.00;0.62;5.43;3.30;;;23.70;29.80;;;;;;2244964;61;20366;-61
2021/10/19 09:30:40;0.00;0.00;0.62;0.00;0.00;0.62;7.47;4.00;;;23.70;29.80;;;;;;2245683;61;20762;-61
2021/10/19 09:33:25;0.00;0.00;0.62;0.00;0.00;0.62;4.40;4.00;;;23.70;29.70;;;;;;2245254;61;20437;-61
2021/10/19 09:36:11;0.00;0.00;0.62;0.00;0.00;0.62;6.50;3.70;;;23.80;29.80;;;;;;2245454;61;20385;-59
2021/10/19 09:38:55;0.00;0.00;0.62;0.00;0.00;0.62;4.53;3.73;;;23.80;29.70;;;;;;2245125;61;20408;-61
2021/10/19 09:41:44;0.00;0.00;0.62;0.00;0.00;0.62;3.87;3.50;;;23.80;29.70;;;;;;2245605;61;20619;-61
2021/10/19 09:44:30;0.00;0.00;0.62;0.00;0.00;0.62;4.00;3.60;;;23.80;29.70;;;;;;2245890;61;20390;-60
2021/10/19 09:47:14;0.00;0.00;0.62;0.00;0.00;0.62;3.03;2.83;;;23.80;29.70;;;;;;2245148;61;20392;-59
2021/10/19 09:50:00;0.00;0.00;0.62;0.00;0.00;0.62;5.07;3.67;;;23.80;29.70;;;;;;2245255;61;20782;-59
2021/10/19 09:52:47;0.00;0.00;0.62;0.00;0.00;0.62;3.73;3.43;;;23.90;29.70;;;;;;2245681;61;20710;-59
2021/10/19 09:55:33;0.00;0.00;0.62;0.00;0.00;0.62;4.40;3.30;;;23.90;29.70;;;;;;2242104;61;20370;-59
2021/10/19 09:58:19;0.00;0.00;0.62;0.00;0.00;0.62;6.83;3.23;;;23.90;29.70;;;;;;2245168;61;20457;-60
2021/10/19 10:01:06;0.00;0.00;0.62;0.00;0.00;0.62;4.03;3.30;;;23.90;29.70;;;;;;2245357;61;20352;-61
2021/10/19 10:03:52;0.00;0.00;0.62;0.00;0.00;0.62;3.40;3.03;;;23.90;29.60;;;;;;2245492;61;20360;-59
2021/10/19 10:06:37;0.00;0.00;0.62;0.00;0.00;0.62;5.00;3.67;;;23.90;29.60;;;;;;2245578;61;20470;-59
2021/10/19 10:09:24;0.00;0.00;0.62;0.00;0.00;0.62;3.20;2.90;;;23.90;30.00;;;;;;2245119;61;20429;-61
2021/10/19 10:12:09;0.00;0.00;0.62;0.00;0.00;0.62;4.30;3.10;;;23.90;29.60;;;;;;2245349;61;20462;-59
2021/10/19 10:14:53;0.00;0.00;0.62;0.00;0.00;0.62;5.40;3.60;;;23.90;29.50;;;;;;2245617;61;20583;-59
2021/10/19 10:17:48;0.00;0.00;0.62;0.00;0.00;0.62;4.73;3.23;;;23.90;29.50;;;;;;2244979;61;20621;-59
2021/10/19 10:20:36;0.00;0.00;0.62;0.00;0.00;0.62;3.43;3.10;;;24.00;29.60;;;;;;2245823;61;20365;-59
2021/10/19 10:23:25;0.00;0.00;0.62;0.00;0.00;0.62;3.73;3.37;;;24.00;29.50;;;;;;2245490;61;20381;-59
2021/10/19 10:26:23;0.00;0.00;0.62;0.00;0.00;0.62;3.57;3.20;;;23.90;29.50;;;;;;2246302;61;20744;-59
2021/10/19 10:29:10;0.00;0.00;0.62;0.00;0.00;0.62;3.00;2.70;;;24.00;29.50;;;;;;2246157;61;20796;-62
2021/10/19 10:31:55;0.00;0.00;0.62;0.00;0.00;0.62;2.87;2.57;;;24.00;29.40;;;;;;2245847;61;20458;-61
2021/10/19 10:34:39;0.00;0.00;0.62;0.00;0.00;0.62;3.50;3.20;;;24.00;29.40;;;;;;2245892;61;20615;-61
2021/10/19 10:37:36;0.00;0.00;0.62;0.00;0.00;0.62;3.77;2.73;;;24.00;29.40;;;;;;2245898;61;20619;-60
2021/10/19 10:40:29;0.00;0.00;0.62;0.00;0.00;0.62;3.40;2.73;;;24.00;29.40;;;;;;2245833;61;20377;-61
2021/10/19 10:43:22;0.00;0.00;0.62;0.00;0.00;0.62;3.23;2.70;;;24.00;29.40;;;;;;2246087;61;20713;-61
2021/10/19 10:46:11;0.00;0.00;0.62;0.00;0.00;0.62;2.90;2.40;;;24.00;29.40;;;;;;2245560;61;20369;-59
2021/10/19 10:48:56;0.00;0.00;0.62;0.00;0.00;0.62;3.07;2.80;;;24.00;29.40;;;;;;2245881;61;20382;-59
2021/10/19 10:51:43;0.00;0.00;0.62;0.00;0.00;0.62;6.93;3.30;;;24.00;29.40;;;;;;2242835;61;20380;-59
2021/10/19 10:54:28;0.00;0.00;0.62;0.00;0.00;0.62;3.40;2.97;;;24.00;29.40;;;;;;2245872;61;20373;-59